Time;durP1;ratioP1;P1;durP2;ratioP2;P2;SDS_P1;SDS_P2;PMS_P1;PMS_P2;Temp;Humidity;BMP_temperature;BMP_pressure;BME280_temperature;BME280_humidity;BME280_pressure;Samples;Min_cycle;Max_cycle;Signal;HPM_P1;HPM_P2
2022/07/25 00:00:57;;;;;;;10.43;5.87;;;;;;;;;;5011312;28;20030;-68
2022/07/25 00:03:22;;;;;;;9.60;5.72;;;;;;;;;;5010668;28;20273;-67
2022/07/25 00:05:47;;;;;;;9.07;6.27;;;;;;;;;;5006377;28;20105;-66
2022/07/25 00:08:13;;;;;;;11.03;5.53;;;;;;;;;;5009203;28;20701;-67
2022/07/25 00:10:38;;;;;;;10.47;5.83;;;;;;;;;;5010271;28;20034;-66
2022/07/25 00:13:03;;;;;;;7.90;5.33;;;;;;;;;;5003427;28;20064;-66
2022/07/25 00:15:28;;;;;;;13.50;5.77;;;;;;;;;;5010049;28;20291;-69
2022/07/25 00:17:53;;;;;;;11.32;6.68;;;;;;;;;;5009138;28;20020;-69
2022/07/25 00:20:19;;;;;;;10.83;5.40;;;;;;;;;;5008592;28;20033;-68
2022/07/25 00:22:44;;;;;;;9.83;5.77;;;;;;;;;;5010106;28;20045;-68
2022/07/25 00:25:09;;;;;;;7.20;5.45;;;;;;;;;;5008831;28;20320;-68
2022/07/25 00:27:34;;;;;;;10.83;5.60;;;;;;;;;;5006503;28;20769;-68
2022/07/25 00:29:59;;;;;;;8.90;5.53;;;;;;;;;;5008564;28;20112;-67
2022/07/25 00:32:25;;;;;;;9.90;6.60;;;;;;;;;;5009039;28;20029;-66
2022/07/25 00:34:50;;;;;;;8.40;5.47;;;;;;;;;;5004883;28;20523;-69
2022/07/25 00:37:15;;;;;;;13.30;6.53;;;;;;;;;;5010632;28;20394;-68
2022/07/25 00:39:40;;;;;;;10.48;5.63;;;;;;;;;;5007573;28;20101;-66
2022/07/25 00:42:05;;;;;;;10.03;6.20;;;;;;;;;;5008455;28;20056;-66
2022/07/25 00:44:31;;;;;;;8.88;5.78;;;;;;;;;;5009425;28;20277;-66
2022/07/25 00:46:57;;;;;;;9.00;5.80;;;;;;;;;;5011383;28;20100;-66
2022/07/25 00:49:23;;;;;;;9.73;6.03;;;;;;;;;;5005137;28;20029;-68
2022/07/25 00:51:48;;;;;;;12.75;6.75;;;;;;;;;;5007212;28;20030;-66
2022/07/25 00:54:14;;;;;;;11.23;5.95;;;;;;;;;;5004623;28;20107;-66
2022/07/25 00:56:39;;;;;;;9.07;5.70;;;;;;;;;;5010491;28;20022;-66
2022/07/25 00:59:04;;;;;;;8.77;6.22;;;;;;;;;;5007463;28;20029;-69
2022/07/25 01:01:29;;;;;;;8.50;5.93;;;;;;;;;;5010459;28;20097;-66
2022/07/25 01:03:54;;;;;;;14.50;6.03;;;;;;;;;;5003852;28;20365;-65
2022/07/25 01:06:20;;;;;;;9.57;6.35;;;;;;;;;;5009315;28;20038;-66
2022/07/25 01:08:45;;;;;;;16.95;5.80;;;;;;;;;;5006084;28;20018;-66
2022/07/25 01:11:11;;;;;;;11.55;6.25;;;;;;;;;;5008082;28;20026;-66
2022/07/25 01:13:36;;;;;;;11.00;6.32;;;;;;;;;;5006518;28;20076;-67
2022/07/25 01:16:01;;;;;;;8.87;5.70;;;;;;;;;;5008826;28;20476;-67
2022/07/25 01:18:26;;;;;;;11.13;6.50;;;;;;;;;;5005530;28;20018;-67
2022/07/25 01:20:52;;;;;;;12.93;6.10;;;;;;;;;;5007819;28;20025;-66
2022/07/25 01:23:17;;;;;;;8.90;6.00;;;;;;;;;;5004211;28;20372;-66
2022/07/25 01:25:42;;;;;;;13.77;6.27;;;;;;;;;;5006316;28;20029;-65
2022/07/25 01:28:07;;;;;;;13.63;6.80;;;;;;;;;;5009133;28;20292;-66
2022/07/25 01:30:33;;;;;;;10.48;6.90;;;;;;;;;;5006099;28;20026;-67
2022/07/25 01:32:58;;;;;;;10.57;5.90;;;;;;;;;;5006768;28;20152;-66
2022/07/25 01:35:23;;;;;;;12.40;6.13;;;;;;;;;;5006028;28;20649;-65
2022/07/25 01:37:48;;;;;;;10.53;6.43;;;;;;;;;;5007944;28;20295;-65
2022/07/25 01:40:13;;;;;;;15.95;6.38;;;;;;;;;;5009733;28;20279;-66
2022/07/25 01:42:39;;;;;;;7.47;5.57;;;;;;;;;;5009405;28;20168;-66
2022/07/25 01:45:04;;;;;;;14.68;6.20;;;;;;;;;;5006698;28;20013;-66
2022/07/25 01:47:29;;;;;;;11.57;6.30;;;;;;;;;;5003326;28;20629;-65
2022/07/25 01:49:55;;;;;;;16.50;6.40;;;;;;;;;;5007590;28;20472;-66
2022/07/25 01:52:20;;;;;;;10.13;6.57;;;;;;;;;;5003309;28;20283;-66
2022/07/25 01:54:45;;;;;;;13.13;6.57;;;;;;;;;;5007966;28;20010;-66
2022/07/25 01:57:10;;;;;;;11.37;6.47;;;;;;;;;;5007923;28;20479;-66
2022/07/25 01:59:37;;;;;;;11.93;6.75;;;;;;;;;;5006310;28;20360;-66
2022/07/25 02:02:03;;;;;;;10.40;6.63;;;;;;;;;;4998791;28;20720;-67
2022/07/25 02:04:28;;;;;;;11.23;6.17;;;;;;;;;;5002926;28;20026;-66
2022/07/25 02:06:53;;;;;;;12.73;7.07;;;;;;;;;;5005357;28;20285;-66
2022/07/25 02:09:18;;;;;;;16.38;7.15;;;;;;;;;;5003209;28;20091;-66
2022/07/25 02:11:43;;;;;;;9.93;6.60;;;;;;;;;;5007199;28;20033;-66
2022/07/25 02:14:09;;;;;;;13.17;7.00;;;;;;;;;;5005836;28;20026;-65
2022/07/25 02:16:34;;;;;;;11.65;7.15;;;;;;;;;;5005451;28;20022;-66
2022/07/25 02:18:59;;;;;;;9.25;6.57;;;;;;;;;;5007087;28;20110;-66
2022/07/25 02:21:24;;;;;;;7.57;6.25;;;;;;;;;;5007945;28;20025;-66
2022/07/25 02:23:50;;;;;;;9.05;6.15;;;;;;;;;;5005531;28;20033;-67
2022/07/25 02:26:15;;;;;;;9.27;6.07;;;;;;;;;;5004325;28;20022;-67
2022/07/25 02:28:40;;;;;;;9.00;6.43;;;;;;;;;;5007672;28;20032;-66
2022/07/25 02:31:06;;;;;;;14.85;6.88;;;;;;;;;;5007521;28;20594;-66
2022/07/25 02:33:31;;;;;;;9.52;6.40;;;;;;;;;;5003876;28;20051;-65
2022/07/25 02:35:56;;;;;;;11.07;7.43;;;;;;;;;;5013753;28;20052;-66
2022/07/25 02:38:21;;;;;;;8.90;6.20;;;;;;;;;;5015291;28;20310;-68
2022/07/25 02:40:50;;;;;;;9.80;6.63;;;;;;;;;;5016018;28;20277;-68
2022/07/25 02:43:16;;;;;;;8.43;6.65;;;;;;;;;;5011658;28;20037;-68
2022/07/25 02:45:41;;;;;;;9.00;6.18;;;;;;;;;;5009846;28;20022;-68
2022/07/25 02:48:06;;;;;;;10.90;6.38;;;;;;;;;;5013578;28;20025;-68
2022/07/25 02:50:31;;;;;;;21.10;7.27;;;;;;;;;;5014658;28;20024;-68
2022/07/25 02:52:57;;;;;;;9.73;6.15;;;;;;;;;;5014773;28;20281;-69
2022/07/25 02:55:22;;;;;;;11.30;7.33;;;;;;;;;;5012921;28;20030;-68
2022/07/25 02:57:47;;;;;;;11.13;6.60;;;;;;;;;;5005538;28;20281;-68
2022/07/25 03:00:13;;;;;;;11.13;7.07;;;;;;;;;;5014152;28;20474;-68
2022/07/25 03:02:38;;;;;;;11.73;6.70;;;;;;;;;;5013024;28;20079;-69
2022/07/25 03:05:07;;;;;;;10.63;6.63;;;;;;;;;;5013142;28;20102;-69
2022/07/25 03:07:33;;;;;;;10.40;7.32;;;;;;;;;;5009717;28;20623;-66
2022/07/25 03:09:58;;;;;;;9.45;6.60;;;;;;;;;;5013147;28;20033;-65
2022/07/25 03:12:23;;;;;;;11.10;6.85;;;;;;;;;;5012555;28;20394;-66
2022/07/25 03:14:48;;;;;;;11.10;6.25;;;;;;;;;;5010204;28;20110;-65
2022/07/25 03:17:14;;;;;;;10.93;6.90;;;;;;;;;;5013770;28;20014;-67
2022/07/25 03:19:39;;;;;;;12.73;7.40;;;;;;;;;;5013603;28;20451;-65
2022/07/25 03:22:04;;;;;;;8.57;6.50;;;;;;;;;;5014753;28;20477;-68
2022/07/25 03:24:29;;;;;;;13.07;7.10;;;;;;;;;;5011570;28;20092;-68
2022/07/25 03:26:54;;;;;;;10.35;6.75;;;;;;;;;;5012562;28;20618;-66
2022/07/25 03:29:20;;;;;;;14.27;7.43;;;;;;;;;;5010285;28;20026;-66
2022/07/25 03:31:45;;;;;;;13.37;6.97;;;;;;;;;;5014225;28;20021;-65
2022/07/25 03:34:10;;;;;;;12.80;7.30;;;;;;;;;;5014569;28;20379;-67
2022/07/25 03:36:35;;;;;;;11.90;7.30;;;;;;;;;;5010232;28;20280;-65
2022/07/25 03:39:00;;;;;;;10.60;6.80;;;;;;;;;;5007409;28;20752;-67
2022/07/25 03:41:26;;;;;;;14.27;6.75;;;;;;;;;;5012369;28;20285;-65
2022/07/25 03:43:51;;;;;;;17.17;6.75;;;;;;;;;;5011481;28;20026;-66
2022/07/25 03:46:16;;;;;;;11.25;6.85;;;;;;;;;;5010452;28;20026;-65
2022/07/25 03:48:41;;;;;;;11.97;6.97;;;;;;;;;;5007670;28;20040;-66
2022/07/25 03:51:07;;;;;;;11.87;7.03;;;;;;;;;;5012101;28;20105;-66
2022/07/25 03:53:32;;;;;;;9.73;7.00;;;;;;;;;;5009588;28;20034;-65
2022/07/25 03:55:57;;;;;;;11.82;7.63;;;;;;;;;;5011399;28;20030;-65
2022/07/25 03:58:23;;;;;;;11.40;6.83;;;;;;;;;;5009179;28;20029;-66
2022/07/25 04:00:48;;;;;;;13.47;6.80;;;;;;;;;;5004672;28;20273;-66
2022/07/25 04:03:13;;;;;;;14.20;6.95;;;;;;;;;;5006616;28;20761;-66
2022/07/25 04:05:39;;;;;;;9.00;6.65;;;;;;;;;;5008669;28;20068;-66
2022/07/25 04:08:04;;;;;;;11.32;6.88;;;;;;;;;;5007454;28;20137;-66
2022/07/25 04:10:29;;;;;;;11.52;7.38;;;;;;;;;;5007998;28;20073;-66
2022/07/25 04:12:54;;;;;;;8.73;6.63;;;;;;;;;;5009115;28;20538;-65
2022/07/25 04:15:19;;;;;;;12.80;7.00;;;;;;;;;;5006226;28;20175;-66
2022/07/25 04:17:45;;;;;;;13.00;7.50;;;;;;;;;;5006554;28;20014;-65
2022/07/25 04:20:10;;;;;;;11.52;7.20;;;;;;;;;;5005372;28;20277;-66
2022/07/25 04:22:35;;;;;;;9.43;6.18;;;;;;;;;;5007552;28;20034;-66
2022/07/25 04:25:01;;;;;;;11.75;7.75;;;;;;;;;;5011008;28;20018;-68
2022/07/25 04:27:26;;;;;;;15.48;7.22;;;;;;;;;;5007214;28;20482;-70
2022/07/25 04:29:51;;;;;;;14.13;6.93;;;;;;;;;;5008521;28;20022;-69
2022/07/25 04:32:18;;;;;;;13.80;7.07;;;;;;;;;;5009989;28;20601;-69
2022/07/25 04:34:43;;;;;;;10.93;7.30;;;;;;;;;;5007448;28;20029;-67
2022/07/25 04:37:08;;;;;;;14.68;7.88;;;;;;;;;;5008189;28;20471;-68
2022/07/25 04:39:33;;;;;;;11.10;6.40;;;;;;;;;;5004522;28;20105;-69
2022/07/25 04:41:59;;;;;;;11.07;7.03;;;;;;;;;;5003775;28;20410;-69
2022/07/25 04:44:24;;;;;;;10.20;6.30;;;;;;;;;;5010877;28;20470;-69
2022/07/25 04:46:49;;;;;;;15.13;6.70;;;;;;;;;;5006822;28;20056;-69
2022/07/25 04:49:14;;;;;;;16.10;6.28;;;;;;;;;;5000285;28;20296;-69
2022/07/25 04:51:39;;;;;;;13.67;6.20;;;;;;;;;;5006801;28;20026;-66
2022/07/25 04:54:05;;;;;;;8.93;6.40;;;;;;;;;;5008525;28;20268;-69
2022/07/25 04:56:30;;;;;;;9.90;6.45;;;;;;;;;;5003094;28;20025;-69
2022/07/25 04:58:55;;;;;;;15.90;6.03;;;;;;;;;;5003759;28;20053;-69
2022/07/25 05:01:21;;;;;;;10.32;5.63;;;;;;;;;;5009467;28;20034;-69
2022/07/25 05:03:46;;;;;;;9.67;6.93;;;;;;;;;;5002534;28;20581;-69
2022/07/25 05:06:11;;;;;;;13.20;7.15;;;;;;;;;;5009817;28;20289;-69
2022/07/25 05:08:36;;;;;;;10.13;6.03;;;;;;;;;;5004031;28;20109;-69
2022/07/25 05:11:01;;;;;;;11.63;6.28;;;;;;;;;;5002643;28;20499;-69
2022/07/25 05:13:27;;;;;;;12.20;6.10;;;;;;;;;;5001163;28;20026;-66
2022/07/25 05:15:52;;;;;;;9.63;6.10;;;;;;;;;;5002919;28;20060;-66
2022/07/25 05:18:17;;;;;;;7.83;5.93;;;;;;;;;;5004161;28;20287;-66
2022/07/25 05:20:42;;;;;;;9.20;6.03;;;;;;;;;;5006301;28;20362;-66
2022/07/25 05:23:07;;;;;;;8.40;5.70;;;;;;;;;;5007891;28;20026;-66
2022/07/25 05:25:33;;;;;;;11.37;6.43;;;;;;;;;;5008150;28;20061;-66
2022/07/25 05:27:58;;;;;;;12.13;6.07;;;;;;;;;;5005668;28;20296;-66
2022/07/25 05:30:23;;;;;;;9.43;5.97;;;;;;;;;;5007480;28;20269;-66
2022/07/25 05:32:48;;;;;;;9.63;6.03;;;;;;;;;;5005618;28;20021;-66
2022/07/25 05:35:14;;;;;;;12.25;6.40;;;;;;;;;;5007266;28;20137;-69
2022/07/25 05:37:40;;;;;;;12.48;6.38;;;;;;;;;;5002947;28;20463;-67
2022/07/25 05:40:06;;;;;;;10.80;5.65;;;;;;;;;;5008461;28;20033;-66
2022/07/25 05:42:31;;;;;;;8.48;6.38;;;;;;;;;;5002434;28;20030;-66
2022/07/25 05:44:56;;;;;;;14.48;6.85;;;;;;;;;;4999308;28;20030;-67
2022/07/25 05:47:21;;;;;;;11.60;6.17;;;;;;;;;;5006448;28;20025;-67
2022/07/25 05:49:47;;;;;;;8.45;5.40;;;;;;;;;;5000343;28;20838;-66
2022/07/25 05:52:12;;;;;;;12.90;6.43;;;;;;;;;;4998232;28;20022;-67
2022/07/25 05:54:37;;;;;;;12.47;5.67;;;;;;;;;;4991693;28;20030;-67
2022/07/25 05:57:02;;;;;;;10.57;5.67;;;;;;;;;;5001401;28;20029;-66
2022/07/25 05:59:27;;;;;;;9.77;6.40;;;;;;;;;;5004513;28;20334;-66
2022/07/25 06:01:53;;;;;;;11.57;5.45;;;;;;;;;;5007458;28;20371;-66
2022/07/25 06:04:18;;;;;;;9.33;5.83;;;;;;;;;;5007457;28;20022;-66
2022/07/25 06:06:49;;;;;;;10.50;5.82;;;;;;;;;;5007673;28;20681;-66
2022/07/25 06:09:14;;;;;;;6.47;5.05;;;;;;;;;;5005469;28;20410;-66
2022/07/25 06:11:40;;;;;;;13.33;5.90;;;;;;;;;;5008768;28;20033;-66
2022/07/25 06:14:05;;;;;;;11.93;5.90;;;;;;;;;;5009423;28;20265;-66
2022/07/25 06:16:30;;;;;;;12.50;5.80;;;;;;;;;;5007757;28;20030;-66
2022/07/25 06:18:55;;;;;;;7.50;5.30;;;;;;;;;;5008649;28;20808;-65
2022/07/25 06:21:20;;;;;;;9.93;5.77;;;;;;;;;;5004036;28;20029;-66
2022/07/25 06:23:46;;;;;;;9.57;6.07;;;;;;;;;;5008607;28;20102;-66
2022/07/25 06:26:11;;;;;;;13.33;5.97;;;;;;;;;;5009433;28;20327;-67
2022/07/25 06:28:37;;;;;;;8.73;5.23;;;;;;;;;;5007361;28;20486;-66
2022/07/25 06:31:02;;;;;;;10.45;5.15;;;;;;;;;;5006714;28;20093;-66
2022/07/25 06:33:28;;;;;;;9.57;5.72;;;;;;;;;;5005769;28;20070;-66
2022/07/25 06:35:53;;;;;;;10.57;6.00;;;;;;;;;;5005567;28;20038;-66
2022/07/25 06:38:18;;;;;;;8.40;5.93;;;;;;;;;;5006697;28;20018;-68
2022/07/25 06:40:44;;;;;;;11.75;5.47;;;;;;;;;;5007800;28;20287;-65
2022/07/25 06:43:09;;;;;;;11.00;4.90;;;;;;;;;;5008262;28;20030;-65
2022/07/25 06:45:34;;;;;;;8.67;5.63;;;;;;;;;;5004486;28;20030;-66
2022/07/25 06:47:59;;;;;;;11.50;5.40;;;;;;;;;;5002168;28;20287;-66
2022/07/25 06:50:25;;;;;;;7.25;5.35;;;;;;;;;;5006378;28;20319;-65
2022/07/25 06:52:50;;;;;;;8.27;5.53;;;;;;;;;;5007712;28;20121;-69
2022/07/25 06:55:15;;;;;;;8.90;5.28;;;;;;;;;;5008162;28;20264;-65
2022/07/25 06:57:41;;;;;;;10.07;5.30;;;;;;;;;;5006264;28;20054;-68
2022/07/25 07:00:08;;;;;;;11.52;5.28;;;;;;;;;;5002775;28;20026;-68
2022/07/25 07:02:34;;;;;;;11.25;5.18;;;;;;;;;;5008206;28;20041;-68
2022/07/25 07:04:59;;;;;;;8.45;5.85;;;;;;;;;;5009653;28;20044;-68
2022/07/25 07:07:25;;;;;;;8.20;5.53;;;;;;;;;;5005125;28;20033;-68
2022/07/25 07:09:50;;;;;;;8.68;5.55;;;;;;;;;;5010556;28;20307;-68
2022/07/25 07:12:16;;;;;;;13.60;7.40;;;;;;;;;;5005561;28;20524;-69
2022/07/25 07:14:43;;;;;;;9.67;5.87;;;;;;;;;;5007270;28;20025;-69
2022/07/25 07:17:08;;;;;;;11.80;5.60;;;;;;;;;;5005309;28;20026;-65
2022/07/25 07:19:33;;;;;;;10.82;5.70;;;;;;;;;;5008521;28;20087;-66
2022/07/25 07:21:59;;;;;;;10.13;5.03;;;;;;;;;;4996611;28;20037;-66
2022/07/25 07:24:24;;;;;;;10.60;5.93;;;;;;;;;;5009320;28;20145;-66
2022/07/25 07:26:49;;;;;;;8.47;5.83;;;;;;;;;;5009632;28;20370;-66
2022/07/25 07:29:14;;;;;;;8.80;5.13;;;;;;;;;;5001042;28;20025;-66
2022/07/25 07:31:39;;;;;;;12.97;5.50;;;;;;;;;;5007027;28;20053;-66
2022/07/25 07:34:05;;;;;;;12.73;5.45;;;;;;;;;;5011042;28;20489;-67
2022/07/25 07:36:30;;;;;;;7.50;5.55;;;;;;;;;;5012842;28;20488;-67
2022/07/25 07:38:55;;;;;;;7.00;5.33;;;;;;;;;;5011068;28;20014;-67
2022/07/25 07:41:20;;;;;;;18.20;5.93;;;;;;;;;;5006707;28;20053;-67
2022/07/25 07:43:45;;;;;;;8.23;5.93;;;;;;;;;;5009090;28;20715;-66
2022/07/25 07:46:11;;;;;;;17.05;5.32;;;;;;;;;;5006527;28;20025;-66
2022/07/25 07:48:36;;;;;;;9.35;4.93;;;;;;;;;;5010598;28;20018;-66
2022/07/25 07:51:02;;;;;;;8.10;5.07;;;;;;;;;;5011125;28;20041;-67
2022/07/25 07:56:11;;;;;;;11.70;5.22;;;;;;;;;;5008826;28;20029;-67
2022/07/25 07:58:36;;;;;;;10.40;5.35;;;;;;;;;;5008916;28;20030;-67
2022/07/25 08:01:02;;;;;;;8.03;5.80;;;;;;;;;;5011693;28;20050;-67
2022/07/25 08:03:27;;;;;;;11.90;5.22;;;;;;;;;;5012629;28;20026;-67
2022/07/25 08:05:52;;;;;;;9.90;6.07;;;;;;;;;;5013188;28;20123;-67
2022/07/25 08:08:18;;;;;;;10.68;5.55;;;;;;;;;;5006446;28;20029;-67
2022/07/25 08:10:44;;;;;;;12.80;5.50;;;;;;;;;;5009784;28;20026;-67
2022/07/25 08:13:13;;;;;;;15.48;5.57;;;;;;;;;;5008875;28;20018;-67
2022/07/25 08:15:38;;;;;;;13.50;5.45;;;;;;;;;;5005002;28;20021;-67
2022/07/25 08:18:04;;;;;;;9.05;5.80;;;;;;;;;;5004476;28;20101;-66
2022/07/25 08:20:29;;;;;;;11.03;4.90;;;;;;;;;;5010652;28;20092;-67
2022/07/25 08:22:54;;;;;;;10.70;5.70;;;;;;;;;;5017036;28;20057;-67
2022/07/25 08:25:20;;;;;;;18.73;6.43;;;;;;;;;;5014300;28;20040;-67
2022/07/25 08:27:46;;;;;;;11.10;4.90;;;;;;;;;;5012045;28;20104;-67
2022/07/25 08:30:12;;;;;;;10.70;5.38;;;;;;;;;;5008587;28;20635;-66
2022/07/25 08:32:46;;;;;;;9.70;5.53;;;;;;;;;;5009077;28;20467;-67
2022/07/25 08:35:12;;;;;;;11.45;6.20;;;;;;;;;;5010891;28;20024;-66
2022/07/25 08:37:37;;;;;;;9.43;5.85;;;;;;;;;;5006044;28;20021;-68
2022/07/25 08:40:02;;;;;;;8.03;5.67;;;;;;;;;;5004987;28;20433;-68
2022/07/25 08:42:28;;;;;;;9.13;5.40;;;;;;;;;;5006542;28;20030;-68
2022/07/25 08:44:56;;;;;;;15.30;5.18;;;;;;;;;;5007892;28;20609;-66
2022/07/25 08:47:22;;;;;;;7.70;5.93;;;;;;;;;;5008206;28;20034;-66
2022/07/25 08:49:48;;;;;;;7.85;5.50;;;;;;;;;;5002923;28;20022;-66
2022/07/25 08:52:13;;;;;;;11.23;6.20;;;;;;;;;;5001990;28;20041;-66
2022/07/25 08:54:39;;;;;;;6.70;5.18;;;;;;;;;;5006608;28;20010;-66
2022/07/25 08:57:04;;;;;;;11.32;5.80;;;;;;;;;;5006406;28;20108;-66
2022/07/25 08:59:30;;;;;;;12.37;5.60;;;;;;;;;;5006374;28;20033;-66
2022/07/25 09:01:57;;;;;;;7.22;5.03;;;;;;;;;;5010616;28;20017;-66
2022/07/25 09:04:22;;;;;;;10.57;5.45;;;;;;;;;;5004018;28;20029;-67
2022/07/25 09:06:49;;;;;;;9.68;5.65;;;;;;;;;;5005661;28;20033;-66
2022/07/25 09:09:14;;;;;;;15.13;5.43;;;;;;;;;;5006127;28;20414;-66
2022/07/25 09:11:39;;;;;;;11.13;5.30;;;;;;;;;;5006371;28;20018;-67
2022/07/25 09:14:09;;;;;;;11.60;6.57;;;;;;;;;;5007648;28;20076;-66
2022/07/25 09:16:36;;;;;;;16.23;5.70;;;;;;;;;;5007650;28;20280;-66
2022/07/25 09:19:14;;;;;;;12.43;6.38;;;;;;;;;;5008476;28;20040;-67
2022/07/25 09:21:41;;;;;;;9.02;5.50;;;;;;;;;;5003384;28;20049;-66
2022/07/25 09:24:10;;;;;;;8.57;5.25;;;;;;;;;;5006971;28;20025;-67
2022/07/25 09:26:36;;;;;;;;;;;;;;;;;;5008448;28;20479;-67
2022/07/25 09:29:01;;;;;;;12.52;5.78;;;;;;;;;;5010160;28;19924;-67
2022/07/25 09:31:30;;;;;;;8.43;5.87;;;;;;;;;;5005648;28;20481;-67
2022/07/25 09:33:57;;;;;;;8.05;5.65;;;;;;;;;;5005565;28;20037;-67
2022/07/25 09:36:23;;;;;;;12.88;5.80;;;;;;;;;;5010759;28;20105;-67
2022/07/25 09:38:55;;;;;;;7.15;5.50;;;;;;;;;;5006264;28;20100;-67
2022/07/25 09:41:21;;;;;;;9.68;6.00;;;;;;;;;;5009041;28;20026;-67
2022/07/25 09:43:46;;;;;;;12.20;5.63;;;;;;;;;;5008684;28;20030;-67
2022/07/25 09:46:12;;;;;;;20.98;6.55;;;;;;;;;;5001354;28;20100;-67
2022/07/25 09:48:38;;;;;;;10.20;5.28;;;;;;;;;;5009428;28;20040;-67
2022/07/25 09:51:03;;;;;;;16.13;6.55;;;;;;;;;;5007301;28;20072;-67
2022/07/25 09:53:29;;;;;;;13.75;6.20;;;;;;;;;;5010079;28;20018;-67
2022/07/25 09:55:55;;;;;;;22.48;5.63;;;;;;;;;;5005702;28;20018;-67
2022/07/25 09:58:21;;;;;;;13.90;6.50;;;;;;;;;;5010520;28;20025;-67
2022/07/25 10:00:46;;;;;;;11.48;5.65;;;;;;;;;;5005462;28;20491;-67
2022/07/25 10:03:18;;;;;;;10.75;5.82;;;;;;;;;;5004767;28;20466;-67
2022/07/25 10:06:03;;;;;;;9.00;5.28;;;;;;;;;;5008789;28;20029;-67
2022/07/25 10:08:33;;;;;;;9.00;5.25;;;;;;;;;;5004717;28;20030;-67
2022/07/25 10:10:58;;;;;;;14.68;5.65;;;;;;;;;;5008563;28;20022;-67
2022/07/25 10:13:31;;;;;;;8.80;5.53;;;;;;;;;;5003789;28;20076;-67
2022/07/25 10:15:57;;;;;;;14.50;6.15;;;;;;;;;;5008812;28;20761;-67
2022/07/25 10:18:24;;;;;;;8.85;6.07;;;;;;;;;;5009190;28;20028;-66
2022/07/25 10:20:50;;;;;;;9.27;6.10;;;;;;;;;;5006529;28;20036;-67
2022/07/25 10:23:19;;;;;;;12.00;6.07;;;;;;;;;;5007100;28;20045;-66
2022/07/25 10:25:44;;;;;;;14.10;5.15;;;;;;;;;;5001314;28;20029;-67
2022/07/25 10:28:11;;;;;;;11.98;6.43;;;;;;;;;;5008718;28;20026;-66
2022/07/25 10:30:37;;;;;;;10.25;5.70;;;;;;;;;;5007488;28;20026;-67
2022/07/25 10:33:03;;;;;;;15.68;5.85;;;;;;;;;;4999781;28;20113;-67
2022/07/25 10:35:29;;;;;;;12.27;5.80;;;;;;;;;;5000347;28;20022;-67
2022/07/25 10:37:55;;;;;;;10.95;5.53;;;;;;;;;;5004948;28;20030;-67
2022/07/25 10:40:28;;;;;;;9.48;5.40;;;;;;;;;;5008871;28;20506;-67
2022/07/25 10:43:00;;;;;;;10.57;5.93;;;;;;;;;;5009614;28;20075;-67
2022/07/25 10:45:26;;;;;;;10.27;5.47;;;;;;;;;;5007983;28;20529;-67
2022/07/25 10:47:54;;;;;;;14.93;6.45;;;;;;;;;;5008586;28;20029;-67
2022/07/25 10:50:21;;;;;;;13.70;5.63;;;;;;;;;;5008905;28;20060;-67
2022/07/25 10:52:56;;;;;;;8.13;6.10;;;;;;;;;;5009184;28;20037;-67
2022/07/25 10:55:22;;;;;;;16.27;5.88;;;;;;;;;;5008079;28;20356;-66
2022/07/25 10:57:57;;;;;;;11.88;5.47;;;;;;;;;;5012866;28;20022;-66
2022/07/25 11:00:23;;;;;;;10.50;5.47;;;;;;;;;;5004538;28;20076;-67
2022/07/25 11:02:48;;;;;;;6.63;5.10;;;;;;;;;;5008159;28;20093;-67
2022/07/25 11:05:13;;;;;;;11.77;5.88;;;;;;;;;;5013919;28;20256;-66
2022/07/25 11:07:48;;;;;;;13.33;5.27;;;;;;;;;;5012460;28;20061;-67
2022/07/25 11:10:13;;;;;;;13.00;5.35;;;;;;;;;;5006607;28;20280;-67
2022/07/25 11:12:38;;;;;;;7.07;5.17;;;;;;;;;;5012796;28;20014;-67
2022/07/25 11:15:05;;;;;;;8.57;5.53;;;;;;;;;;5010693;28;20650;-67
2022/07/25 11:17:31;;;;;;;11.32;5.70;;;;;;;;;;5006462;28;20292;-67
2022/07/25 11:19:56;;;;;;;11.20;5.60;;;;;;;;;;5011533;28;20030;-67
2022/07/25 11:22:21;;;;;;;10.80;5.55;;;;;;;;;;5012416;28;20021;-67
2022/07/25 11:24:46;;;;;;;13.47;5.67;;;;;;;;;;5010593;28;20054;-67
2022/07/25 11:27:18;;;;;;;12.82;6.00;;;;;;;;;;5013680;28;20352;-67
2022/07/25 11:29:44;;;;;;;13.65;6.13;;;;;;;;;;5005666;28;20037;-67
2022/07/25 11:32:10;;;;;;;11.53;5.47;;;;;;;;;;5010500;28;20022;-67
2022/07/25 11:34:37;;;;;;;16.38;5.75;;;;;;;;;;5012501;28;20042;-67
2022/07/25 11:37:04;;;;;;;9.80;4.50;;;;;;;;;;5007215;28;20060;-66
2022/07/25 11:39:30;;;;;;;10.30;5.35;;;;;;;;;;5011978;28;20030;-67
2022/07/25 11:42:01;;;;;;;9.30;5.40;;;;;;;;;;5006565;28;20061;-67
2022/07/25 11:44:34;;;;;;;13.75;4.70;;;;;;;;;;5007158;28;20036;-66
2022/07/25 11:46:59;;;;;;;10.88;4.60;;;;;;;;;;5008445;28;20053;-67
2022/07/25 11:49:24;;;;;;;17.07;4.47;;;;;;;;;;5012198;28;20119;-66
2022/07/25 11:51:50;;;;;;;9.47;4.33;;;;;;;;;;5011527;28;20833;-67
2022/07/25 11:54:15;;;;;;;8.98;4.20;;;;;;;;;;5004248;28;20017;-67
2022/07/25 11:56:42;;;;;;;14.50;3.80;;;;;;;;;;5008630;28;20084;-67
2022/07/25 11:59:08;;;;;;;11.32;4.78;;;;;;;;;;5012352;28;20100;-66
2022/07/25 12:01:34;;;;;;;7.63;3.72;;;;;;;;;;5004748;28;20101;-67
2022/07/25 12:04:18;;;;;;;11.45;4.30;;;;;;;;;;5007045;28;20013;-67
2022/07/25 12:06:45;;;;;;;12.40;4.75;;;;;;;;;;5011337;28;21177;-67
2022/07/25 12:09:11;;;;;;;9.50;4.15;;;;;;;;;;5004919;28;20032;-67
2022/07/25 12:11:36;;;;;;;13.10;4.65;;;;;;;;;;5005315;28;20022;-67
2022/07/25 12:14:02;;;;;;;10.63;3.63;;;;;;;;;;5011673;28;20034;-67
2022/07/25 12:16:28;;;;;;;10.85;3.53;;;;;;;;;;5005423;28;20100;-67
2022/07/25 12:18:53;;;;;;;10.18;3.95;;;;;;;;;;5001688;28;20030;-67
2022/07/25 12:21:18;;;;;;;8.70;4.15;;;;;;;;;;5009367;28;20430;-67
2022/07/25 12:23:43;;;;;;;7.60;3.63;;;;;;;;;;5010250;28;20105;-68
2022/07/25 12:26:10;;;;;;;9.63;3.47;;;;;;;;;;5010361;28;20497;-67
2022/07/25 12:28:35;;;;;;;10.00;3.95;;;;;;;;;;5009491;28;20030;-66
2022/07/25 12:31:00;;;;;;;7.22;4.18;;;;;;;;;;5002746;28;20033;-67
2022/07/25 12:33:25;;;;;;;6.93;3.67;;;;;;;;;;5005907;28;20053;-67
2022/07/25 12:35:51;;;;;;;8.60;4.23;;;;;;;;;;5009883;28;20105;-67
2022/07/25 12:38:16;;;;;;;7.70;4.30;;;;;;;;;;5005446;28;20300;-66
2022/07/25 12:40:41;;;;;;;9.82;4.32;;;;;;;;;;5010160;28;20034;-67
2022/07/25 12:43:06;;;;;;;10.50;3.20;;;;;;;;;;4999795;28;20383;-67
2022/07/25 12:45:32;;;;;;;8.90;3.53;;;;;;;;;;5010532;28;20272;-67
2022/07/25 12:47:57;;;;;;;10.43;4.03;;;;;;;;;;5012096;28;21217;-67
2022/07/25 12:50:24;;;;;;;6.50;3.80;;;;;;;;;;5006830;28;20293;-66
2022/07/25 12:52:49;;;;;;;8.80;4.25;;;;;;;;;;5011511;28;20048;-67
2022/07/25 12:55:16;;;;;;;8.63;3.87;;;;;;;;;;5009511;28;20020;-67
2022/07/25 12:57:41;;;;;;;5.20;3.00;;;;;;;;;;5008605;28;20320;-66
2022/07/25 13:00:08;;;;;;;10.07;3.80;;;;;;;;;;5009853;28;20068;-67
2022/07/25 13:02:34;;;;;;;9.10;3.75;;;;;;;;;;5012062;28;20022;-67
2022/07/25 13:04:59;;;;;;;7.03;3.50;;;;;;;;;;5008807;28;20021;-67
2022/07/25 13:07:24;;;;;;;10.20;4.20;;;;;;;;;;5005648;28;20290;-66
2022/07/25 13:09:49;;;;;;;6.43;3.27;;;;;;;;;;5006241;28;20026;-67
2022/07/25 13:12:14;;;;;;;9.77;3.50;;;;;;;;;;5009410;28;20412;-66
2022/07/25 13:14:40;;;;;;;6.07;3.17;;;;;;;;;;5003155;28;20757;-67
2022/07/25 13:17:05;;;;;;;7.47;3.20;;;;;;;;;;5005064;28;20105;-67
2022/07/25 13:19:30;;;;;;;6.18;2.85;;;;;;;;;;5006462;28;20100;-67
2022/07/25 13:21:55;;;;;;;12.03;3.90;;;;;;;;;;5001671;28;20017;-67
2022/07/25 13:24:20;;;;;;;10.33;3.13;;;;;;;;;;5005997;28;20069;-67
2022/07/25 13:26:46;;;;;;;7.20;3.10;;;;;;;;;;5010725;28;20382;-67
2022/07/25 13:29:11;;;;;;;12.90;3.60;;;;;;;;;;5009312;28;20030;-67
2022/07/25 13:31:37;;;;;;;4.45;2.72;;;;;;;;;;5009553;28;20277;-67
2022/07/25 13:34:02;;;;;;;7.72;2.90;;;;;;;;;;5007753;28;20394;-67
2022/07/25 13:36:27;;;;;;;7.93;2.85;;;;;;;;;;5008470;28;20036;-67
2022/07/25 13:38:53;;;;;;;6.05;2.58;;;;;;;;;;5007877;28;20030;-67
2022/07/25 13:41:18;;;;;;;10.90;3.03;;;;;;;;;;5009348;28;20068;-67
2022/07/25 13:43:43;;;;;;;8.47;3.20;;;;;;;;;;5008911;28;20843;-67
2022/07/25 13:46:08;;;;;;;9.60;2.50;;;;;;;;;;5007131;28;20057;-67
2022/07/25 13:48:34;;;;;;;10.10;2.70;;;;;;;;;;5008349;28;20032;-66
2022/07/25 13:50:59;;;;;;;3.90;1.83;;;;;;;;;;5004536;28;20356;-67
2022/07/25 13:53:24;;;;;;;5.40;2.10;;;;;;;;;;5010050;28;20017;-66
2022/07/25 13:55:50;;;;;;;6.70;2.00;;;;;;;;;;5010190;28;20026;-67
2022/07/25 13:58:15;;;;;;;4.65;1.90;;;;;;;;;;5006058;28;20079;-67
2022/07/25 14:00:40;;;;;;;8.60;2.40;;;;;;;;;;5004435;28;20025;-67
2022/07/25 14:03:06;;;;;;;9.02;2.30;;;;;;;;;;5007802;28;20505;-67
2022/07/25 14:05:31;;;;;;;7.85;2.13;;;;;;;;;;5008066;28;20087;-67
2022/07/25 14:07:58;;;;;;;12.15;2.20;;;;;;;;;;5008495;28;20029;-66
2022/07/25 14:10:23;;;;;;;7.57;3.00;;;;;;;;;;5008375;28;20037;-67
2022/07/25 14:12:49;;;;;;;15.20;2.00;;;;;;;;;;5006444;28;20025;-66
2022/07/25 14:15:14;;;;;;;6.63;2.08;;;;;;;;;;5007818;28;20013;-66
2022/07/25 14:17:39;;;;;;;4.43;1.60;;;;;;;;;;5010503;28;20025;-67
2022/07/25 14:20:05;;;;;;;5.72;1.73;;;;;;;;;;5007670;28;20105;-67
2022/07/25 14:22:30;;;;;;;7.68;2.05;;;;;;;;;;5006433;28;20029;-67
2022/07/25 14:24:56;;;;;;;11.13;2.45;;;;;;;;;;5007005;28;20395;-67
2022/07/25 14:27:21;;;;;;;4.82;2.08;;;;;;;;;;5010084;28;20026;-67
2022/07/25 14:29:47;;;;;;;8.07;1.90;;;;;;;;;;5007980;28;20029;-67